Time;durP1;ratioP1;P1;durP2;ratioP2;P2;SDS_P1;SDS_P2;PMS_P1;PMS_P2;Temp;Humidity;BMP_temperature;BMP_pressure;BME280_temperature;BME280_humidity;BME280_pressure;Samples;Min_cycle;Max_cycle;Signal;HPM_P1;HPM_P2
2021/05/05 04:47:27;;;;;;;13.63;6.90;;;;;;;;;;6207843;22;883543;-78
2021/05/05 04:49:52;;;;;;;40.28;22.25;;;;;;;;;;6287806;22;20079;-77
2021/05/05 04:52:18;;;;;;;37.28;18.77;;;;;;;;;;6287885;22;20059;-80
2021/05/05 04:54:44;;;;;;;25.83;13.80;;;;;;;;;;6286655;22;20027;-80
2021/05/05 04:57:10;;;;;;;13.63;7.45;;;;;;;;;;6287108;22;20000;-80
2021/05/05 04:59:36;;;;;;;14.65;4.82;;;;;;;;;;6287812;22;20059;-80
2021/05/05 05:02:01;;;;;;;12.77;2.38;;;;;;;;;;6288545;22;20027;-79
2021/05/05 05:04:27;;;;;;;5.30;2.13;;;;;;;;;;6287480;22;20035;-79
2021/05/05 05:06:52;;;;;;;11.35;2.53;;;;;;;;;;6281068;22;20023;-80
2021/05/05 05:09:18;;;;;;;17.17;3.97;;;;;;;;;;6280133;22;20073;-80
2021/05/05 05:11:44;;;;;;;8.20;2.53;;;;;;;;;;6280335;22;20045;-80
2021/05/05 05:14:09;;;;;;;13.25;3.38;;;;;;;;;;6276676;22;20031;-79
2021/05/05 05:16:35;;;;;;;8.45;2.40;;;;;;;;;;6275691;22;19996;-78
2021/05/05 05:19:01;;;;;;;7.05;1.95;;;;;;;;;;6278012;22;20011;-81
2021/05/05 05:21:26;;;;;;;6.95;1.60;;;;;;;;;;6278253;22;20111;-80
2021/05/05 05:23:52;;;;;;;21.05;3.53;;;;;;;;;;6279633;22;20389;-81
2021/05/05 05:26:18;;;;;;;13.07;2.97;;;;;;;;;;6279588;22;20330;-81
2021/05/05 05:28:43;;;;;;;8.35;1.63;;;;;;;;;;6279475;22;20031;-80
2021/05/05 05:31:09;;;;;;;8.45;2.03;;;;;;;;;;6280629;22;19999;-79
2021/05/05 05:33:35;;;;;;;9.73;2.55;;;;;;;;;;6277549;22;20003;-79
2021/05/05 05:36:00;;;;;;;10.35;1.83;;;;;;;;;;6280915;22;20003;-79
2021/05/05 05:38:26;;;;;;;10.27;1.95;;;;;;;;;;6278755;22;20378;-77
2021/05/05 05:40:52;;;;;;;7.75;2.47;;;;;;;;;;6281193;22;20046;-79
2021/05/05 05:43:17;;;;;;;8.30;2.03;;;;;;;;;;6280699;22;20082;-78
2021/05/05 05:45:43;;;;;;;11.05;2.58;;;;;;;;;;6287318;22;20018;-80
2021/05/05 05:48:11;;;;;;;7.95;2.03;;;;;;;;;;6309999;22;20074;-80
2021/05/05 05:50:36;;;;;;;9.32;1.80;;;;;;;;;;6311653;22;20007;-79
2021/05/05 05:53:02;;;;;;;11.65;2.72;;;;;;;;;;6283713;22;20412;-80
2021/05/05 05:55:29;;;;;;;17.73;3.83;;;;;;;;;;6282549;22;20427;-78
2021/05/05 05:57:57;;;;;;;9.57;1.85;;;;;;;;;;6310483;22;20061;-80
2021/05/05 06:00:23;;;;;;;8.55;2.10;;;;;;;;;;6310462;22;19999;-79
2021/05/05 06:02:48;;;;;;;10.98;3.08;;;;;;;;;;6283458;22;20014;-79
2021/05/05 06:05:14;;;;;;;10.32;2.30;;;;;;;;;;6310201;22;20021;-80
2021/05/05 06:07:40;;;;;;;10.40;2.15;;;;;;;;;;6283336;22;20322;-80
2021/05/05 06:10:07;;;;;;;9.20;2.67;;;;;;;;;;6310579;22;20414;-76
2021/05/05 06:12:32;;;;;;;9.25;2.20;;;;;;;;;;6311025;22;20006;-79
2021/05/05 06:14:58;;;;;;;10.50;2.40;;;;;;;;;;6309897;22;19999;-79
2021/05/05 06:17:24;;;;;;;9.57;3.15;;;;;;;;;;6282747;22;20010;-79
2021/05/05 06:19:50;;;;;;;12.43;2.95;;;;;;;;;;6310452;22;20010;-79
2021/05/05 06:22:16;;;;;;;8.38;2.20;;;;;;;;;;6310466;22;20015;-79
2021/05/05 06:24:41;;;;;;;11.07;2.15;;;;;;;;;;6309910;22;20031;-78
2021/05/05 06:27:07;;;;;;;6.45;2.13;;;;;;;;;;6282104;22;19999;-80
2021/05/05 06:29:36;;;;;;;15.05;2.78;;;;;;;;;;6309908;22;20020;-80
2021/05/05 06:32:02;;;;;;;14.70;2.45;;;;;;;;;;6282586;22;20011;-79
2021/05/05 06:34:28;;;;;;;13.18;2.88;;;;;;;;;;6282293;22;20048;-79
2021/05/05 06:36:54;;;;;;;12.95;2.45;;;;;;;;;;6310282;22;20003;-79
2021/05/05 06:39:19;;;;;;;9.63;2.35;;;;;;;;;;6309963;22;20003;-78
2021/05/05 06:41:45;;;;;;;11.77;2.30;;;;;;;;;;6309045;22;20057;-80
2021/05/05 06:44:11;;;;;;;7.13;2.10;;;;;;;;;;6309796;22;20429;-79
2021/05/05 06:46:42;;;;;;;8.80;1.80;;;;;;;;;;6310138;22;20010;-80
2021/05/05 06:49:08;;;;;;;;;;;;;;;;;;6309674;22;20068;-78
2021/05/05 06:51:33;;;;;;;6.78;2.47;;;;;;;;;;6309558;22;19907;-79
2021/05/05 06:53:59;;;;;;;10.93;2.35;;;;;;;;;;6310032;22;20007;-79
2021/05/05 06:56:25;;;;;;;10.18;2.50;;;;;;;;;;6279816;22;20038;-78
2021/05/05 06:58:50;;;;;;;7.88;2.10;;;;;;;;;;6304141;22;20078;-76
2021/05/05 07:01:18;;;;;;;29.63;2.97;;;;;;;;;;6304127;22;20034;-78
2021/05/05 07:08:47;;;;;;;7.45;2.53;;;;;;;;;;6247083;23;20012;-79
2021/05/05 07:11:13;;;;;;;9.70;3.42;;;;;;;;;;6247035;23;20510;-78
2021/05/05 07:15:57;;;;;;;8.68;2.58;;;;;;;;;;5100395;27;20392;-75
2021/05/05 07:18:23;;;;;;;10.25;2.50;;;;;;;;;;5091338;28;20448;-78
2021/05/05 07:20:49;;;;;;;12.95;2.25;;;;;;;;;;5089196;28;20021;-76
2021/05/05 07:23:14;;;;;;;7.82;3.20;;;;;;;;;;5104036;22;20090;-82
2021/05/05 07:25:40;;;;;;;13.48;3.28;;;;;;;;;;5087304;28;20361;-82
2021/05/05 07:28:06;;;;;;;12.93;2.90;;;;;;;;;;5096454;28;20104;-82
2021/05/05 07:30:31;;;;;;;14.85;2.53;;;;;;;;;;5088170;28;20103;-84
2021/05/05 07:32:57;;;;;;;6.55;2.42;;;;;;;;;;5088917;28;20095;-82
2021/05/05 07:35:23;;;;;;;9.25;2.10;;;;;;;;;;5108172;28;20073;-83
2021/05/05 07:41:16;;;;;;;9.55;2.10;;;;;;;;;;5100432;28;20023;-82
2021/05/05 07:48:53;;;;;;;5.53;2.03;;;;;;;;;;5101908;28;20054;-87
2021/05/05 07:51:19;;;;;;;6.53;2.33;;;;;;;;;;5085742;28;20033;-81
2021/05/05 07:53:44;;;;;;;13.13;3.20;;;;;;;;;;5100798;28;20016;-84
2021/05/05 07:56:10;;;;;;;12.90;2.80;;;;;;;;;;5103776;28;20022;-84
2021/05/05 07:58:36;;;;;;;11.48;2.97;;;;;;;;;;5108689;28;20043;-83
2021/05/05 08:01:02;;;;;;;5.20;1.80;;;;;;;;;;5107731;28;20148;-83
2021/05/05 08:03:27;;;;;;;5.63;2.17;;;;;;;;;;5087601;28;20024;-84
2021/05/05 08:05:53;;;;;;;6.55;2.75;;;;;;;;;;5107723;28;20461;-83
2021/05/05 08:08:19;;;;;;;7.82;2.70;;;;;;;;;;5107089;28;20106;-84
2021/05/05 08:10:45;;;;;;;11.27;2.55;;;;;;;;;;5086392;28;20095;-83
2021/05/05 08:13:10;;;;;;;9.80;2.50;;;;;;;;;;5111333;28;20085;-83
2021/05/05 08:15:36;;;;;;;9.27;2.13;;;;;;;;;;5092560;28;20081;-82
2021/05/05 08:18:03;;;;;;;6.68;2.10;;;;;;;;;;5111381;28;20050;-83
2021/05/05 08:20:29;;;;;;;10.35;2.10;;;;;;;;;;5091592;28;20027;-85
2021/05/05 08:22:55;;;;;;;10.88;2.75;;;;;;;;;;5093210;28;20015;-83
2021/05/05 08:25:21;;;;;;;6.35;2.35;;;;;;;;;;5101926;28;20403;-84
2021/05/05 08:27:47;;;;;;;13.15;2.78;;;;;;;;;;5079707;28;20564;-83
2021/05/05 08:30:13;;;;;;;8.10;2.63;;;;;;;;;;5074478;28;20825;-83
2021/05/05 08:32:38;;;;;;;5.53;1.83;;;;;;;;;;5094312;28;20024;-83
2021/05/05 08:35:04;;;;;;;7.78;1.92;;;;;;;;;;5094426;28;20032;-83
2021/05/05 08:37:30;;;;;;;6.60;2.58;;;;;;;;;;5080873;28;20031;-81
2021/05/05 08:39:56;;;;;;;6.05;1.83;;;;;;;;;;5081595;28;20032;-81
2021/05/05 08:42:21;;;;;;;6.15;1.50;;;;;;;;;;5092001;28;20032;-85
2021/05/05 08:44:49;;;;;;;6.32;2.70;;;;;;;;;;5073972;28;20411;-85
2021/05/05 08:47:16;;;;;;;10.57;2.15;;;;;;;;;;5085187;28;20021;-86
2021/05/05 08:49:42;;;;;;;6.78;2.40;;;;;;;;;;5095949;28;20028;-82
2021/05/05 08:52:08;;;;;;;6.05;2.25;;;;;;;;;;5094264;28;20057;-82
2021/05/05 08:54:34;;;;;;;4.60;1.70;;;;;;;;;;5089959;28;20021;-81
2021/05/05 08:56:59;;;;;;;7.55;2.17;;;;;;;;;;5091055;28;20054;-85
2021/05/05 08:59:27;;;;;;;7.88;3.35;;;;;;;;;;5087079;28;20020;-81
2021/05/05 09:01:53;;;;;;;4.95;1.38;;;;;;;;;;5089525;28;20028;-79
2021/05/05 09:04:19;;;;;;;5.35;1.67;;;;;;;;;;5086513;28;20408;-79
2021/05/05 09:06:52;;;;;;;5.82;2.63;;;;;;;;;;5086271;28;20020;-80
2021/05/05 09:09:35;;;;;;;3.83;1.70;;;;;;;;;;5086653;28;20392;-81
2021/05/05 09:12:35;;;;;;;3.78;1.50;;;;;;;;;;5084607;28;20040;-80
2021/05/05 09:15:01;;;;;;;5.97;1.83;;;;;;;;;;5053444;28;20094;-80
2021/05/05 09:17:28;;;;;;;6.20;2.03;;;;;;;;;;5069198;28;20115;-80
2021/05/05 09:20:03;;;;;;;3.70;1.67;;;;;;;;;;5088556;28;20090;-80
2021/05/05 09:22:35;;;;;;;6.05;1.80;;;;;;;;;;5084515;28;20089;-80
2021/05/05 09:25:01;;;;;;;4.18;1.60;;;;;;;;;;5084072;28;20024;-80
2021/05/05 09:27:26;;;;;;;9.23;1.63;;;;;;;;;;5084570;28;20470;-81
2021/05/05 09:29:53;;;;;;;4.38;1.52;;;;;;;;;;5082432;28;20486;-81
2021/05/05 09:32:19;;;;;;;6.70;1.60;;;;;;;;;;5087424;28;20027;-81
2021/05/05 09:34:56;;;;;;;5.85;1.45;;;;;;;;;;5086849;28;20024;-81
2021/05/05 09:37:22;;;;;;;3.58;1.70;;;;;;;;;;5089528;28;20027;-81
2021/05/05 09:39:56;;;;;;;7.55;1.90;;;;;;;;;;5087237;28;20040;-81
2021/05/05 09:42:22;;;;;;;4.82;1.63;;;;;;;;;;5087370;28;20383;-81
2021/05/05 09:44:58;;;;;;;5.05;1.75;;;;;;;;;;5071269;28;20028;-82
2021/05/05 09:47:25;;;;;;;4.28;1.60;;;;;;;;;;5086632;28;20028;-81
2021/05/05 09:49:50;;;;;;;3.47;1.42;;;;;;;;;;5093441;28;20024;-81
2021/05/05 09:52:22;;;;;;;4.07;1.35;;;;;;;;;;5065902;28;20045;-80
2021/05/05 09:54:48;;;;;;;;;;;;;;;;;;5091813;28;20065;-80
2021/05/05 09:57:18;;;;;;;5.80;1.70;;;;;;;;;;5088739;28;19912;-80
2021/05/05 10:00:03;;;;;;;6.83;1.50;;;;;;;;;;5089251;28;20472;-80
2021/05/05 10:02:30;;;;;;;5.70;1.70;;;;;;;;;;5083540;28;20098;-80
2021/05/05 10:05:00;;;;;;;5.72;1.35;;;;;;;;;;5088261;28;20418;-80
2021/05/05 10:07:26;;;;;;;7.15;1.75;;;;;;;;;;5084422;28;20395;-81
2021/05/05 10:09:51;;;;;;;5.13;1.55;;;;;;;;;;5085154;28;20104;-80
2021/05/05 10:12:20;;;;;;;4.70;1.35;;;;;;;;;;5084926;28;20023;-82
2021/05/05 10:14:48;;;;;;;6.25;1.65;;;;;;;;;;5091764;28;20024;-80
2021/05/05 10:17:14;;;;;;;5.50;2.25;;;;;;;;;;5089652;28;20031;-80
2021/05/05 10:19:41;;;;;;;5.03;2.25;;;;;;;;;;5094192;28;20030;-80
2021/05/05 10:22:07;;;;;;;6.88;2.00;;;;;;;;;;5093152;28;20024;-80
2021/05/05 10:24:35;;;;;;;4.47;1.98;;;;;;;;;;5079265;28;20051;-80
2021/05/05 10:27:01;;;;;;;7.35;2.05;;;;;;;;;;5091971;28;20058;-81
2021/05/05 10:29:31;;;;;;;5.53;1.80;;;;;;;;;;5088295;28;20258;-81
2021/05/05 10:34:21;;;;;;;6.45;1.70;;;;;;;;;;5074037;27;20876;-80
2021/05/05 10:37:00;;;;;;;5.13;2.03;;;;;;;;;;5045186;28;20033;-80
2021/05/05 10:39:26;;;;;;;8.73;2.20;;;;;;;;;;5046705;28;20485;-79
2021/05/05 10:42:14;;;;;;;5.97;2.22;;;;;;;;;;5059952;28;20047;-81
2021/05/05 10:44:58;;;;;;;6.93;2.55;;;;;;;;;;5059143;28;20021;-80
2021/05/05 10:47:30;;;;;;;5.25;1.70;;;;;;;;;;5054219;28;20117;-80
2021/05/05 10:50:06;;;;;;;4.75;2.20;;;;;;;;;;5066873;28;20029;-80
2021/05/05 10:52:34;;;;;;;6.45;2.10;;;;;;;;;;5053463;28;20025;-80
2021/05/05 10:55:00;;;;;;;6.82;2.00;;;;;;;;;;5061597;28;20488;-81
2021/05/05 10:57:27;;;;;;;5.32;1.42;;;;;;;;;;5055750;28;20029;-81
2021/05/05 10:59:58;;;;;;;12.63;2.08;;;;;;;;;;5059818;28;20029;-81
2021/05/05 11:02:36;;;;;;;5.47;1.85;;;;;;;;;;5053010;28;20020;-81
2021/05/05 11:05:10;;;;;;;7.30;1.80;;;;;;;;;;5035477;28;20057;-81
2021/05/05 11:07:49;;;;;;;5.05;1.90;;;;;;;;;;5065052;28;20480;-81
2021/05/05 11:10:37;;;;;;;5.00;2.15;;;;;;;;;;5063099;28;20053;-81
2021/05/05 11:13:28;;;;;;;6.85;1.58;;;;;;;;;;5059271;28;20025;-81
2021/05/05 11:15:57;;;;;;;4.18;1.52;;;;;;;;;;5062204;28;20021;-81
2021/05/05 11:18:25;;;;;;;3.13;1.25;;;;;;;;;;5060315;28;20470;-81
2021/05/05 11:21:01;;;;;;;3.55;1.10;;;;;;;;;;5058970;28;20040;-80
2021/05/05 11:28:39;;;;;;;4.55;1.25;;;;;;;;;;5075711;28;20358;-81
2021/05/05 11:31:05;;;;;;;3.78;1.15;;;;;;;;;;5077064;28;20790;-81
2021/05/05 11:33:50;;;;;;;2.10;1.23;;;;;;;;;;5078772;28;20013;-81
2021/05/05 11:36:16;;;;;;;3.33;1.30;;;;;;;;;;5080027;28;20029;-81
2021/05/05 11:38:42;;;;;;;3.20;1.13;;;;;;;;;;5078620;28;20056;-79
2021/05/05 11:41:08;;;;;;;2.17;0.98;;;;;;;;;;5070875;28;20078;-82
2021/05/05 11:43:33;;;;;;;4.43;1.23;;;;;;;;;;5070985;28;20036;-82
2021/05/05 11:46:01;;;;;;;2.38;1.00;;;;;;;;;;5071085;28;20034;-82
2021/05/05 11:48:28;;;;;;;3.60;1.08;;;;;;;;;;5049021;28;20393;-79
2021/05/05 11:50:53;;;;;;;2.58;1.17;;;;;;;;;;5054587;28;20404;-80
2021/05/05 11:53:33;;;;;;;2.42;1.00;;;;;;;;;;5057256;28;20029;-81
2021/05/05 11:55:58;;;;;;;2.63;1.10;;;;;;;;;;5075092;28;20028;-79
2021/05/05 11:58:24;;;;;;;5.75;1.42;;;;;;;;;;5076224;28;20021;-81
2021/05/05 12:00:51;;;;;;;6.35;1.27;;;;;;;;;;5077623;28;20031;-81
2021/05/05 12:03:21;;;;;;;3.03;1.23;;;;;;;;;;5077362;28;20021;-80
2021/05/05 12:05:47;;;;;;;3.67;1.42;;;;;;;;;;5074794;28;20054;-81
2021/05/05 12:08:20;;;;;;;4.45;1.40;;;;;;;;;;5076814;28;20115;-81
2021/05/05 12:10:52;;;;;;;4.80;1.35;;;;;;;;;;5057613;28;20016;-81
2021/05/05 12:13:25;;;;;;;4.53;1.40;;;;;;;;;;5079120;28;20016;-81
2021/05/05 12:16:14;;;;;;;3.65;1.40;;;;;;;;;;5083063;28;20024;-81
2021/05/05 12:18:47;;;;;;;3.08;1.10;;;;;;;;;;5076612;28;20036;-79
2021/05/05 12:21:13;;;;;;;3.50;1.23;;;;;;;;;;5074743;28;20029;-79
2021/05/05 12:23:43;;;;;;;4.82;1.00;;;;;;;;;;5079536;28;20021;-80
2021/05/05 12:26:12;;;;;;;2.00;0.90;;;;;;;;;;5071154;28;20059;-80
2021/05/05 12:28:38;;;;;;;2.63;1.10;;;;;;;;;;5068475;28;20016;-80
2021/05/05 12:31:04;;;;;;;3.03;1.00;;;;;;;;;;5059018;28;20025;-80
2021/05/05 12:33:30;;;;;;;2.80;1.20;;;;;;;;;;5081001;28;20032;-79
2021/05/05 12:35:55;;;;;;;1.70;0.70;;;;;;;;;;5076583;28;20824;-80
2021/05/05 12:38:22;;;;;;;2.92;0.70;;;;;;;;;;5071276;28;20092;-79
2021/05/05 12:40:47;;;;;;;2.13;0.80;;;;;;;;;;5068797;28;20067;-84
2021/05/05 12:43:17;;;;;;;4.70;1.05;;;;;;;;;;5065978;28;20453;-81
2021/05/05 12:45:44;;;;;;;4.05;0.80;;;;;;;;;;5043583;28;20117;-82
2021/05/05 12:48:09;;;;;;;2.63;1.23;;;;;;;;;;5069025;28;20048;-82
2021/05/05 12:50:37;;;;;;;1.95;1.00;;;;;;;;;;5044346;28;20067;-82
2021/05/05 12:53:04;;;;;;;3.60;1.30;;;;;;;;;;5055487;28;20025;-84
2021/05/05 12:55:32;;;;;;;5.43;1.40;;;;;;;;;;5052346;28;20013;-84
2021/05/05 12:58:09;;;;;;;4.57;1.42;;;;;;;;;;5055022;28;20036;-84
2021/05/05 13:00:36;;;;;;;5.38;1.60;;;;;;;;;;5056239;28;20066;-85
2021/05/05 13:03:13;;;;;;;4.78;1.52;;;;;;;;;;5075995;28;20111;-85
2021/05/05 13:05:57;;;;;;;4.00;1.63;;;;;;;;;;5065271;28;20490;-84
2021/05/05 13:08:40;;;;;;;3.50;1.45;;;;;;;;;;5055449;28;20029;-84
2021/05/05 13:13:40;;;;;;;3.05;1.73;;;;;;;;;;5083339;28;20346;-86
2021/05/05 13:32:36;;;;;;;5.25;1.35;;;;;;;;;;5062718;28;20167;-82
2021/05/05 13:35:21;;;;;;;4.83;3.13;;;;;;;;;;5064952;28;20108;-82
2021/05/05 13:37:55;;;;;;;3.75;2.22;;;;;;;;;;5059644;28;20470;-80
2021/05/05 13:40:21;;;;;;;14.48;6.75;;;;;;;;;;5067077;28;20477;-80
2021/05/05 13:42:48;;;;;;;4.40;2.50;;;;;;;;;;5056686;28;20183;-80
2021/05/05 13:45:15;;;;;;;5.70;3.47;;;;;;;;;;5059136;28;20079;-80
2021/05/05 13:50:00;;;;;;;11.07;5.50;;;;;;;;;;5108850;27;20412;-82
2021/05/05 13:52:26;;;;;;;4.63;2.30;;;;;;;;;;5099546;28;20106;-83
2021/05/05 13:54:52;;;;;;;5.78;2.30;;;;;;;;;;5094946;28;20028;-80
2021/05/05 13:57:18;;;;;;;2.85;1.23;;;;;;;;;;5095056;28;20043;-81
2021/05/05 13:59:44;;;;;;;2.95;1.08;;;;;;;;;;5094465;28;20015;-81
2021/05/05 14:02:10;;;;;;;4.60;2.03;;;;;;;;;;5097443;28;20423;-77
2021/05/05 14:04:37;;;;;;;5.63;1.55;;;;;;;;;;5086745;28;20036;-77
2021/05/05 14:07:04;;;;;;;6.28;1.23;;;;;;;;;;5088794;28;20111;-78
2021/05/05 14:09:30;;;;;;;5.53;1.27;;;;;;;;;;5087229;28;20119;-77
2021/05/05 14:11:56;;;;;;;3.40;1.00;;;;;;;;;;5092706;28;20460;-83
2021/05/05 14:14:22;;;;;;;4.78;1.92;;;;;;;;;;5092633;28;20050;-83
2021/05/05 14:16:49;;;;;;;3.20;1.30;;;;;;;;;;5099331;28;20034;-83
2021/05/05 14:19:14;;;;;;;7.53;1.52;;;;;;;;;;5096822;28;20028;-82
2021/05/05 14:21:40;;;;;;;2.97;1.10;;;;;;;;;;5101362;28;20020;-83
2021/05/05 14:24:07;;;;;;;3.30;0.90;;;;;;;;;;5098231;28;20480;-82
2021/05/05 14:26:33;;;;;;;2.95;1.45;;;;;;;;;;5096576;28;20027;-83
2021/05/05 14:28:59;;;;;;;4.32;1.63;;;;;;;;;;5094516;28;20027;-83
2021/05/05 14:31:25;;;;;;;4.07;1.50;;;;;;;;;;5091492;28;20547;-83
2021/05/05 14:33:50;;;;;;;4.72;1.17;;;;;;;;;;5091890;28;20050;-82
2021/05/05 14:38:40;;;;;;;5.38;1.13;;;;;;;;;;5097141;28;20387;-83
2021/05/05 14:41:11;;;;;;;3.88;1.25;;;;;;;;;;5088747;28;20025;-82
2021/05/05 14:43:49;;;;;;;4.43;1.57;;;;;;;;;;5061445;28;20083;-82
2021/05/05 14:48:46;;;;;;;;;;;;;;;;;;5059628;28;20493;-79
2021/05/05 14:53:31;;;;;;;3.00;1.30;;;;;;;;;;5112359;27;20355;-80
2021/05/05 14:55:57;;;;;;;5.63;1.63;;;;;;;;;;5105431;27;20028;-80
2021/05/05 15:00:48;;;;;;;2.55;1.10;;;;;;;;;;5097734;27;20031;-80
2021/05/05 15:03:14;;;;;;;4.30;1.65;;;;;;;;;;5099248;28;20065;-80
2021/05/05 15:05:40;;;;;;;3.67;1.65;;;;;;;;;;5102566;28;20019;-80
2021/05/05 15:08:11;;;;;;;3.67;1.65;;;;;;;;;;5099727;28;20026;-80
2021/05/05 15:11:05;;;;;;;4.18;1.33;;;;;;;;;;5103619;28;20032;-80
2021/05/05 15:13:40;;;;;;;4.72;1.20;;;;;;;;;;5101629;28;20039;-80
2021/05/05 15:29:54;;;;;;;2.35;1.00;;;;;;;;;;5097050;28;20034;-79
2021/05/05 15:38:00;;;;;;;3.90;1.52;;;;;;;;;;5112901;28;20046;-81
2021/05/05 15:40:40;;;;;;;4.32;1.10;;;;;;;;;;5109104;27;20031;-81
2021/05/05 15:43:33;;;;;;;3.78;1.33;;;;;;;;;;5113574;27;20493;-81
2021/05/05 15:45:57;;;;;;;5.43;1.42;;;;;;;;;;5102323;28;20050;-82
2021/05/05 15:48:23;;;;;;;2.80;1.10;;;;;;;;;;5119115;28;20430;-82
2021/05/05 15:50:50;;;;;;;2.70;0.90;;;;;;;;;;5109849;28;20027;-82
2021/05/05 15:55:42;;;;;;;2.80;1.10;;;;;;;;;;5120721;28;20052;-82
2021/05/05 15:58:12;;;;;;;2.50;1.33;;;;;;;;;;5110666;28;20083;-81
2021/05/05 16:00:45;;;;;;;2.63;0.90;;;;;;;;;;5108798;28;20025;-82
2021/05/05 16:11:51;;;;;;;3.30;1.40;;;;;;;;;;5090425;28;20514;-82
2021/05/05 16:16:53;;;;;;;2.70;1.27;;;;;;;;;;5088406;28;20017;-82
2021/05/05 16:21:43;;;;;;;4.85;1.35;;;;;;;;;;5105889;27;20358;-81
2021/05/05 16:27:06;;;;;;;5.25;1.10;;;;;;;;;;5089573;28;20058;-83
2021/05/05 16:48:13;;;;;;;5.95;2.45;;;;;;;;;;5086539;28;20107;-82
2021/05/05 16:56:25;;;;;;;3.30;1.80;;;;;;;;;;5033442;28;20094;-83
2021/05/05 17:11:57;;;;;;;4.68;1.55;;;;;;;;;;5087660;28;20178;-82
2021/05/05 17:14:25;;;;;;;4.05;1.25;;;;;;;;;;5089292;28;20054;-82
2021/05/05 17:16:53;;;;;;;2.22;0.93;;;;;;;;;;5085897;28;20466;-82
2021/05/05 17:19:26;;;;;;;5.85;1.50;;;;;;;;;;5093525;28;20043;-81
2021/05/05 17:21:55;;;;;;;3.05;1.45;;;;;;;;;;5090749;28;20047;-81
2021/05/05 17:24:52;;;;;;;4.53;1.45;;;;;;;;;;5087794;28;20059;-81
2021/05/05 17:27:15;;;;;;;6.65;3.92;;;;;;;;;;5087148;28;20040;-82
2021/05/05 17:29:49;;;;;;;22.15;15.52;;;;;;;;;;5088271;28;20050;-82
2021/05/05 17:43:23;;;;;;;2.80;1.25;;;;;;;;;;5091052;28;20351;-81
2021/05/05 17:48:36;;;;;;;3.83;1.50;;;;;;;;;;5074248;28;20028;-80
2021/05/05 17:51:33;;;;;;;4.07;1.13;;;;;;;;;;5079553;28;20025;-81
2021/05/05 18:18:26;;;;;;;4.35;1.27;;;;;;;;;;5070664;28;20465;-82
2021/05/05 18:20:57;;;;;;;3.85;1.10;;;;;;;;;;5063008;28;20173;-81
2021/05/05 18:23:27;;;;;;;2.58;0.98;;;;;;;;;;5069954;28;20435;-81
2021/05/05 18:28:49;;;;;;;3.30;1.30;;;;;;;;;;5073573;28;20644;-81
2021/05/05 18:31:15;;;;;;;2.40;1.20;;;;;;;;;;5071825;28;20024;-81
2021/05/05 18:33:41;;;;;;;2.15;0.98;;;;;;;;;;5067802;28;20035;-82
2021/05/05 18:36:07;;;;;;;3.45;1.10;;;;;;;;;;5073392;28;20016;-82
2021/05/05 18:38:32;;;;;;;2.65;1.10;;;;;;;;;;5071401;28;20017;-82
2021/05/05 18:41:27;;;;;;;1.63;0.75;;;;;;;;;;5068922;28;20034;-82
2021/05/05 19:39:43;;;;;;;22.88;11.02;;;;;;;;;;5053248;28;20040;-79
2021/05/05 20:23:44;;;;;;;2.70;1.20;;;;;;;;;;5080350;28;20024;-77
2021/05/05 20:42:23;;;;;;;3.53;2.45;;;;;;;;;;5078244;28;20039;-78
2021/05/05 20:50:44;;;;;;;24.15;11.15;;;;;;;;;;5076576;28;20051;-78
2021/05/05 21:07:20;;;;;;;21.08;11.50;;;;;;;;;;5074794;28;20055;-77
2021/05/05 21:18:44;;;;;;;16.70;8.00;;;;;;;;;;5073470;28;20040;-76
2021/05/05 21:27:13;;;;;;;18.50;10.60;;;;;;;;;;5075586;28;20078;-77
